Time;durP1;ratioP1;P1;durP2;ratioP2;P2;SDS_P1;SDS_P2;PMS_P1;PMS_P2;Temp;Humidity;BMP_temperature;BMP_pressure;BME280_temperature;BME280_humidity;BME280_pressure;Samples;Min_cycle;Max_cycle;Signal;HPM_P1;HPM_P2
2023/01/14 00:00:39;;;;;;;;;4.00;3.67;;;;;10.63;64.80;101829.28;2001709;28;2744003;-79
2023/01/14 00:01:50;;;;;;;;;6.33;4.00;;;;;10.65;64.87;101827.47;2002031;28;2754515;-79
2023/01/14 00:03:00;;;;;;;;;5.00;4.00;;;;;10.65;64.63;101822.22;1963560;28;2754456;-80
2023/01/14 00:04:11;;;;;;;;;5.00;5.00;;;;;10.66;64.99;101825.72;2018561;28;2752373;-79
2023/01/14 00:05:25;;;;;;;;;5.17;2.83;;;;;10.67;65.23;101817.81;2019331;28;2741992;-80
2023/01/14 00:06:38;;;;;;;;;8.00;4.00;;;;;10.68;65.08;101819.56;1994997;28;2746107;-80
2023/01/14 00:07:51;;;;;;;;;7.67;4.17;;;;;10.70;64.82;101816.88;1987639;28;2750270;-79
2023/01/14 00:09:05;;;;;;;;;5.00;4.00;;;;;10.71;64.96;101815.13;1961349;28;3470524;-79
2023/01/14 00:10:18;;;;;;;;;6.33;5.50;;;;;10.71;64.98;101810.75;2008328;28;2745097;-78
2023/01/14 00:11:48;;;;;;;;;4.50;4.00;;;;;10.73;65.24;101810.72;1981479;28;2754475;-79
2023/01/14 00:12:59;;;;;;;;;9.67;5.00;;;;;10.75;65.24;101812.44;1955843;28;3477351;-79
2023/01/14 00:14:32;;;;;;;;;4.33;3.00;;;;;10.76;65.28;101810.69;2011072;28;2739853;-79
2023/01/14 00:16:04;;;;;;;;;4.83;3.50;;;;;10.78;65.25;101806.25;1989661;28;2749215;-79
2023/01/14 00:17:18;;;;;;;;;6.50;4.67;;;;;10.78;64.97;101815.00;1984106;28;2752376;-79
2023/01/14 00:18:33;;;;;;;;;4.33;4.33;;;;;10.79;65.06;101806.22;1990670;28;2752356;-79
2023/01/14 00:19:46;;;;;;;;;4.33;3.67;;;;;10.82;65.29;101804.41;1994585;28;2746134;-79
2023/01/14 00:21:02;;;;;;;;;5.33;4.00;;;;;10.82;65.32;101807.06;1961403;28;3470044;-79
2023/01/14 00:22:16;;;;;;;;;6.17;5.50;;;;;10.83;65.37;101807.03;2004522;28;2745081;-79
2023/01/14 00:23:30;;;;;;;;;5.67;4.00;;;;;10.86;65.81;101814.00;1988602;28;2754464;-79
2023/01/14 00:24:45;;;;;;;;;4.17;4.00;;;;;10.85;65.74;101793.84;1995972;28;2754435;-79
2023/01/14 00:26:07;;;;;;;;;5.67;5.00;;;;;10.86;65.81;101795.59;1966448;28;2748233;-79
2023/01/14 00:27:20;;;;;;;;;8.00;3.67;;;;;10.86;66.02;101792.97;2010649;28;2750268;-79
2023/01/14 00:28:34;;;;;;;;;6.67;5.83;;;;;10.87;66.40;101787.69;1981824;28;2747144;-79
2023/01/14 00:29:47;;;;;;;;;5.17;3.67;;;;;10.87;66.20;101792.94;1981357;28;2746119;-79
2023/01/14 00:31:05;;;;;;;;;5.00;3.00;;;;;10.86;66.50;101782.47;1957461;28;2754837;-79
2023/01/14 00:32:18;;;;;;;;;4.50;3.50;;;;;10.86;66.77;101766.69;2011917;28;2744020;-79
2023/01/14 00:33:32;;;;;;;;;4.33;3.00;;;;;10.86;66.79;101769.31;2005564;28;2733603;-79
2023/01/14 00:34:45;;;;;;;;;5.83;4.50;;;;;10.87;66.93;101765.75;1981108;28;2752348;-79
2023/01/14 00:35:59;;;;;;;;;4.83;3.83;;;;;10.87;67.03;101776.28;1981561;28;2749239;-79
2023/01/14 00:37:10;;;;;;;;;5.67;4.33;;;;;10.87;67.25;101768.38;1963273;28;2739846;-79
2023/01/14 00:38:23;;;;;;;;;6.17;5.00;;;;;10.86;67.39;101772.81;2010346;28;2752366;-78
2023/01/14 00:39:33;;;;;;;;;9.00;4.00;;;;;10.87;67.22;101763.13;1986423;28;2765890;-79
2023/01/14 00:40:44;;;;;;;;;8.00;5.00;;;;;10.86;67.29;101762.28;2011441;28;2743002;-79
2023/01/14 00:41:55;;;;;;;;;7.00;4.67;;;;;10.86;67.46;101769.31;1963859;28;2748193;-79
2023/01/14 00:43:06;;;;;;;;;6.33;4.67;;;;;10.85;67.95;101763.16;2011194;28;2739877;-79
2023/01/14 00:44:19;;;;;;;;;10.17;6.17;;;;;10.86;67.83;101762.28;1995665;28;2761527;-79
2023/01/14 00:45:30;;;;;;;;;7.67;5.67;;;;;10.87;68.08;101750.84;1972374;28;2748197;-78
2023/01/14 00:46:43;;;;;;;;;7.00;5.00;;;;;10.86;67.72;101750.91;2006801;28;2748187;-79
2023/01/14 00:47:53;;;;;;;;;7.67;5.67;;;;;10.86;68.07;101751.78;1978322;28;3454893;-78
2023/01/14 00:49:06;;;;;;;;;1.67;1.00;;;;;10.86;67.89;101746.50;2004100;28;2744035;-78
2023/01/14 00:50:19;;;;;;;;;8.17;6.67;;;;;10.86;67.84;101745.63;1983165;28;2737790;-78
2023/01/14 00:51:33;;;;;;;;;8.00;5.67;;;;;10.85;68.06;101743.88;1981290;28;2745542;-78
2023/01/14 00:52:43;;;;;;;;;8.33;7.00;;;;;10.84;68.16;101743.00;1955983;28;2730506;-78
2023/01/14 00:53:55;;;;;;;;;7.00;7.00;;;;;10.83;68.18;101741.28;2016956;28;2739300;-79
2023/01/14 00:55:08;;;;;;;;;9.17;7.33;;;;;10.83;68.10;101725.50;2011789;28;2735695;-78
2023/01/14 00:56:22;;;;;;;;;6.67;5.50;;;;;10.82;68.24;101731.66;1981015;28;2735694;-79
2023/01/14 00:57:35;;;;;;;;;7.67;7.67;;;;;10.82;68.32;101722.88;2005668;28;2746106;-79
2023/01/14 00:58:46;;;;;;;;;6.33;5.00;;;;;10.80;68.46;101720.31;1964199;28;2739880;-79
2023/01/14 00:59:59;;;;;;;;;8.40;6.00;;;;;10.79;68.40;101719.44;2010941;28;2746142;-79
2023/01/14 01:01:13;;;;;;;;;7.50;6.33;;;;;10.80;68.49;101720.31;2012001;28;2734630;-78
2023/01/14 01:02:23;;;;;;;;;8.67;5.00;;;;;10.78;68.69;101717.72;1963573;28;2746513;-79
2023/01/14 01:03:40;;;;;;;;;11.33;6.33;;;;;10.79;68.57;101711.53;2012902;28;1833587;-78
2023/01/14 01:04:53;;;;;;;;;8.83;7.67;;;;;10.77;68.59;101709.81;1987418;28;2737781;-79
2023/01/14 01:06:04;;;;;;;;;11.33;9.00;;;;;10.77;68.54;101705.44;1976388;28;3485676;-79
2023/01/14 01:07:14;;;;;;;;;11.33;7.33;;;;;10.77;68.54;101713.34;1986870;28;2755598;-78
2023/01/14 01:08:25;;;;;;;;;10.67;6.00;;;;;10.77;68.74;101704.56;2001387;28;2762873;-78
2023/01/14 01:09:36;;;;;;;;;12.67;9.00;;;;;10.75;69.07;101701.09;1996361;28;3486714;-79
2023/01/14 01:10:50;;;;;;;;;8.67;8.67;;;;;10.77;68.63;101702.81;2005927;28;2727433;-78
2023/01/14 01:12:04;;;;;;;;;8.33;6.83;;;;;10.76;68.88;101705.47;2017690;28;2741929;-79
2023/01/14 01:13:15;;;;;;;;;7.67;5.00;;;;;10.76;69.30;101695.84;1998617;28;1838787;-78
2023/01/14 01:14:29;;;;;;;;;4.83;3.17;;;;;10.76;68.77;101692.34;1984319;28;2731017;-78
2023/01/14 01:15:42;;;;;;;;;9.17;6.67;;;;;10.77;68.99;101686.16;2004628;28;2736719;-78
2023/01/14 01:16:55;;;;;;;;;7.00;7.00;;;;;10.78;68.96;101683.53;1981267;28;2746104;-79
2023/01/14 01:18:10;;;;;;;;;7.33;7.33;;;;;10.79;69.32;101687.03;1989371;28;2730963;-79
2023/01/14 01:19:23;;;;;;;;;7.00;6.33;;;;;10.78;69.28;101675.63;2007245;28;2735701;-78
2023/01/14 01:20:37;;;;;;;;;8.00;5.33;;;;;10.81;69.25;101672.09;2003768;28;2746108;-78
2023/01/14 01:21:48;;;;;;;;;8.00;7.00;;;;;10.81;69.17;101674.72;1955955;28;2738892;-79
2023/01/14 01:22:59;;;;;;;;;7.67;7.00;;;;;10.82;68.95;101675.56;2003007;28;2734216;-79
2023/01/14 01:24:12;;;;;;;;;8.67;6.00;;;;;10.84;69.17;101671.16;1989121;28;2746098;-78
2023/01/14 01:25:26;;;;;;;;;4.00;4.00;;;;;10.84;69.32;101681.69;1987388;28;2740958;-78
2023/01/14 01:26:39;;;;;;;;;7.33;5.00;;;;;10.85;69.60;101670.25;1989050;28;2746131;-78
2023/01/14 01:27:57;;;;;;;;;4.83;4.17;;;;;10.86;69.64;101664.09;2006807;28;2736717;-78
2023/01/14 01:29:10;;;;;;;;;5.83;5.50;;;;;10.87;69.77;101663.19;1981512;28;2747169;-79
2023/01/14 01:30:25;;;;;;;;;5.50;4.33;;;;;10.87;69.57;101665.81;2004393;28;2745056;-78
2023/01/14 01:31:38;;;;;;;;;5.67;5.67;;;;;10.88;69.60;101659.69;2006079;28;2729976;-79
2023/01/14 01:32:53;;;;;;;;;3.83;3.83;;;;;10.90;69.86;101668.41;1988481;28;2744386;-78
2023/01/14 01:34:06;;;;;;;;;5.33;4.33;;;;;10.90;69.53;101669.28;1980690;28;2754424;-78
2023/01/14 01:35:16;;;;;;;;;4.67;3.67;;;;;10.91;69.80;101676.25;1984520;28;2754536;-78
2023/01/14 01:36:28;;;;;;;;;5.75;4.50;;;;;10.93;69.92;101670.97;2003155;28;2741961;-78
2023/01/14 01:37:41;;;;;;;;;3.00;3.00;;;;;10.95;70.03;101668.31;1989300;28;2733592;-78
2023/01/14 01:38:55;;;;;;;;;3.67;3.67;;;;;10.96;69.88;101670.06;1987705;28;2745049;-78
2023/01/14 01:40:11;;;;;;;;;4.83;3.83;;;;;10.97;70.19;101664.75;1987817;28;2748210;-79
2023/01/14 01:41:28;;;;;;;;;3.50;3.50;;;;;10.99;69.88;101662.94;1988346;28;2754456;-79
2023/01/14 01:42:54;;;;;;;;;6.33;4.50;;;;;10.99;70.11;101655.06;1988971;28;2750269;-79
2023/01/14 01:44:27;;;;;;;;;5.00;3.83;;;;;11.01;70.44;101650.63;1988431;28;2748202;-79
2023/01/14 01:45:45;;;;;;;;;3.00;3.00;;;;;11.03;70.20;101654.13;1998254;28;2754471;-78
2023/01/14 01:46:59;;;;;;;;;2.50;2.50;;;;;11.03;70.29;101662.00;2022707;28;2750284;-78
2023/01/14 01:48:20;;;;;;;;;2.67;2.67;;;;;11.05;70.52;101661.97;1984555;28;2728388;-79
2023/01/14 01:49:37;;;;;;;;;4.67;3.33;;;;;11.07;70.36;101672.44;2003893;28;2739842;-79
2023/01/14 01:50:52;;;;;;;;;5.00;5.00;;;;;11.07;70.31;101667.19;1978454;28;2748322;-79
2023/01/14 01:52:14;;;;;;;;;3.33;3.33;;;;;11.09;70.37;101662.75;2004050;28;2750271;-78
2023/01/14 01:53:27;;;;;;;;;3.00;3.00;;;;;11.09;70.61;101660.13;1981800;28;2737750;-79
2023/01/14 01:54:59;;;;;;;;;5.00;4.00;;;;;11.11;70.22;101666.25;2011983;28;2750297;-79
2023/01/14 01:56:17;;;;;;;;;5.00;3.17;;;;;11.12;70.57;101667.97;1989251;28;2745073;-79
2023/01/14 01:57:30;;;;;;;;;3.00;3.00;;;;;11.13;70.41;101669.72;1989670;28;2734677;-79
2023/01/14 01:58:44;;;;;;;;;0.67;0.00;;;;;11.13;70.52;101665.31;2012337;28;2735671;-79
2023/01/14 02:00:01;;;;;;;;;2.50;2.50;;;;;11.15;70.57;101667.91;2013719;28;2728411;-79
2023/01/14 02:01:15;;;;;;;;;4.17;2.67;;;;;11.15;70.59;101662.66;1989976;28;2754463;-79
2023/01/14 02:02:29;;;;;;;;;5.67;4.00;;;;;11.17;70.55;101659.97;1990987;28;2747156;-79
2023/01/14 02:03:44;;;;;;;;;5.33;3.67;;;;;11.19;70.73;101660.81;2012090;28;2745073;-79
2023/01/14 02:04:57;;;;;;;;;2.50;2.50;;;;;11.18;70.52;101653.81;2013749;28;2738869;-79
2023/01/14 02:06:12;;;;;;;;;3.33;2.33;;;;;11.19;70.51;101656.41;2012989;28;2754487;-79
2023/01/14 02:07:26;;;;;;;;;3.50;3.50;;;;;11.19;70.65;101653.78;1986281;28;2745066;-79
2023/01/14 02:08:44;;;;;;;;;4.17;4.17;;;;;11.19;70.65;101648.53;1988908;28;2752376;-79
2023/01/14 02:09:59;;;;;;;;;3.67;3.00;;;;;11.19;70.50;101651.16;1963054;28;2749255;-79
2023/01/14 02:11:37;;;;;;;;;4.33;4.33;;;;;11.21;70.95;101649.34;2018826;28;2750306;-79
2023/01/14 02:13:21;;;;;;;;;4.67;4.67;;;;;11.20;70.89;101645.00;1997836;28;2750372;-79
2023/01/14 02:14:52;;;;;;;;;4.67;4.67;;;;;11.21;70.82;101645.88;1991898;28;2737754;-79
2023/01/14 02:16:27;;;;;;;;;4.50;4.50;;;;;11.20;70.77;101639.75;1982851;28;2739897;-79
2023/01/14 02:18:17;;;;;;;;;4.00;3.17;;;;;11.20;70.90;101623.94;1982666;28;2749323;-79
2023/01/14 02:19:58;;;;;;;;;5.50;3.67;;;;;11.21;70.89;101616.94;2010623;28;2752383;-79
2023/01/14 02:21:20;;;;;;;;;5.00;3.33;;;;;11.22;71.01;101613.38;1985445;28;2753401;-79
2023/01/14 02:22:33;;;;;;;;;5.50;2.67;;;;;11.21;70.98;101595.88;2018621;28;2748210;-79
2023/01/14 02:24:08;;;;;;;;;4.67;3.00;;;;;11.22;70.94;101602.84;1981243;28;2750041;-79
2023/01/14 02:25:43;;;;;;;;;6.83;3.00;;;;;11.22;71.08;101601.09;2005472;28;2740337;-79
2023/01/14 02:27:36;;;;;;;;;5.33;4.50;;;;;11.23;71.21;101601.97;1982544;28;2747160;-79
2023/01/14 02:29:26;;;;;;;;;3.67;3.00;;;;;11.24;71.22;101596.66;1983145;28;2748197;-79
2023/01/14 02:30:58;;;;;;;;;3.83;3.67;;;;;11.25;71.29;101601.03;1990818;28;2739849;-79
2023/01/14 02:32:28;;;;;;;;;4.17;2.00;;;;;11.25;71.55;101595.78;1990253;28;2749223;-79
2023/01/14 02:33:57;;;;;;;;;2.33;2.00;;;;;11.27;71.47;101586.97;1990528;28;2752817;-79
2023/01/14 02:35:16;;;;;;;;;2.67;2.67;;;;;11.28;71.71;101586.94;1989876;28;2739909;-79
2023/01/14 02:36:37;;;;;;;;;2.83;2.83;;;;;11.29;71.62;101587.78;2015348;28;2754489;-79
2023/01/14 02:38:13;;;;;;;;;3.50;2.33;;;;;11.30;71.54;101586.91;1989315;28;2745185;-79
2023/01/14 02:39:37;;;;;;;;;1.67;1.67;;;;;11.31;71.75;101589.50;2011929;28;2751292;-79
2023/01/14 02:41:00;;;;;;;;;2.00;0.50;;;;;11.30;71.45;101586.91;2015280;28;2744551;-79
2023/01/14 02:44:09;;;;;;;;;2.50;2.50;;;;;11.30;71.61;101582.50;2014860;28;2730471;-79
2023/01/14 02:45:40;;;;;;;;;2.50;2.00;;;;;11.33;71.89;101581.56;1985344;28;2725254;-79
2023/01/14 02:47:15;;;;;;;;;4.67;2.17;;;;;11.34;71.50;101585.94;1983859;28;2741940;-79
2023/01/14 02:48:30;;;;;;;;;0.83;0.83;;;;;11.37;71.96;101588.50;1983583;28;2724263;-79
2023/01/14 02:49:47;;;;;;;;;5.67;2.00;;;;;11.37;71.80;101577.97;2005067;28;2754455;-79
2023/01/14 02:51:00;;;;;;;;;2.50;1.00;;;;;11.38;71.86;101589.38;1990476;28;2733599;-79
2023/01/14 02:52:13;;;;;;;;;2.33;1.17;;;;;11.38;72.02;101584.97;1993657;28;2734065;-79
2023/01/14 02:53:27;;;;;;;;;2.00;1.50;;;;;11.38;71.99;101581.47;2012172;28;2753917;-79
2023/01/14 02:54:40;;;;;;;;;3.83;1.33;;;;;11.38;72.00;101584.97;1998282;28;2731536;-79
2023/01/14 02:55:56;;;;;;;;;2.50;1.33;;;;;11.40;71.95;101579.66;1997459;28;2722133;-79
2023/01/14 02:57:19;;;;;;;;;2.83;1.17;;;;;11.42;71.97;101577.84;2013698;28;2748198;-79
2023/01/14 02:58:45;;;;;;;;;0.83;0.50;;;;;11.42;71.88;101576.09;1990572;28;2739834;-79
2023/01/14 03:00:21;;;;;;;;;3.83;0.83;;;;;11.44;72.16;101576.06;1991428;28;2732573;-79
2023/01/14 03:02:10;;;;;;;;;1.50;0.00;;;;;11.45;71.88;101569.91;2013008;28;2727545;-79
2023/01/14 03:04:18;;;;;;;;;4.00;1.00;;;;;11.47;72.16;101566.34;2013051;28;2733599;-78
2023/01/14 03:05:58;;;;;;;;;3.00;1.00;;;;;11.48;71.79;101569.84;1978274;28;2729945;-79
2023/01/14 03:07:16;;;;;;;;;2.33;2.00;;;;;11.47;71.82;101555.81;2013609;28;2733627;-79
2023/01/14 03:08:40;;;;;;;;;0.67;0.67;;;;;11.48;71.72;101561.94;1985693;28;2730514;-79
2023/01/14 03:10:28;;;;;;;;;0.50;0.50;;;;;11.51;71.65;101566.28;2005166;28;2735706;-79
2023/01/14 03:11:55;;;;;;;;;1.33;0.83;;;;;11.48;71.61;101554.88;2011533;28;2739880;-79
2023/01/14 03:13:22;;;;;;;;;3.33;1.00;;;;;11.48;71.60;101559.31;1989965;28;2744032;-79
2023/01/14 03:15:09;;;;;;;;;2.50;1.17;;;;;11.48;71.52;101549.63;2013423;28;2731500;-79
2023/01/14 03:16:38;;;;;;;;;1.17;0.00;;;;;11.47;71.55;101552.28;2006081;28;2725267;-79
2023/01/14 03:18:04;;;;;;;;;3.50;1.33;;;;;11.47;71.58;101547.03;2004966;28;2752380;-79
2023/01/14 03:19:25;;;;;;;;;0.50;0.50;;;;;11.46;71.41;101546.16;1995474;28;2733639;-79
2023/01/14 03:20:43;;;;;;;;;2.67;0.67;;;;;11.48;71.49;101544.34;2011420;28;2743435;-79
2023/01/14 03:21:59;;;;;;;;;0.50;0.50;;;;;11.49;71.35;101542.59;1987692;28;2730818;-79
2023/01/14 03:23:18;;;;;;;;;2.67;0.50;;;;;11.49;71.33;101539.97;2013283;28;2745049;-79
2023/01/14 03:24:34;;;;;;;;;1.50;1.33;;;;;11.52;71.53;101539.91;1990969;28;2733634;-79
2023/01/14 03:25:51;;;;;;;;;2.50;1.50;;;;;11.51;71.56;101527.63;2013573;28;2741928;-79
2023/01/14 03:27:09;;;;;;;;;4.50;2.00;;;;;11.52;71.47;101525.84;2020037;28;2740886;-79
2023/01/14 03:28:30;;;;;;;;;2.83;0.50;;;;;11.52;71.48;101526.72;1994029;28;2739873;-79
2023/01/14 03:29:46;;;;;;;;;2.50;0.00;;;;;11.53;71.40;101525.81;1990246;28;2737778;-79
2023/01/14 03:31:07;;;;;;;;;1.33;1.33;;;;;11.54;71.28;101510.88;2012716;28;2739848;-79
2023/01/14 03:32:45;;;;;;;;;1.83;1.00;;;;;11.54;71.38;101506.50;1990769;28;2737801;-79
2023/01/14 03:34:02;;;;;;;;;1.33;0.50;;;;;11.56;71.04;101509.06;1989844;28;2737750;-79
2023/01/14 03:35:23;;;;;;;;;1.00;1.00;;;;;11.56;71.38;101514.34;1989956;28;2737765;-79
2023/01/14 03:36:40;;;;;;;;;3.33;1.33;;;;;11.58;71.36;101499.41;1990100;28;2728384;-79
2023/01/14 03:38:00;;;;;;;;;1.67;1.00;;;;;11.57;71.36;101484.47;1988452;28;2737170;-79
2023/01/14 03:39:18;;;;;;;;;1.00;0.67;;;;;11.58;71.19;101487.06;1983017;28;2731523;-79
2023/01/14 03:40:35;;;;;;;;;2.33;1.17;;;;;11.58;71.14;101479.16;2005957;28;2731552;-79
2023/01/14 03:43:32;;;;;;;;;0.50;0.50;;;;;11.60;71.01;101468.63;1991082;28;2726319;-79
2023/01/14 03:44:57;;;;;;;;;5.50;1.33;;;;;11.60;70.99;101468.63;1997448;28;2741920;-79
2023/01/14 03:46:11;;;;;;;;;5.17;0.17;;;;;11.61;71.28;101469.47;2023114;28;2746103;-79
2023/01/14 03:47:30;;;;;;;;;5.83;1.00;;;;;11.61;71.08;101467.69;1981911;28;2748177;-79
2023/01/14 03:48:44;;;;;;;;;5.50;1.17;;;;;11.62;71.27;101471.19;2009463;28;2742414;-79
2023/01/14 03:50:01;;;;;;;;;3.50;0.83;;;;;11.62;71.25;101458.91;1990758;28;2733646;-79
2023/01/14 03:51:23;;;;;;;;;4.67;4.67;;;;;11.62;70.94;101461.53;1967658;28;2760728;-79
2023/01/14 03:52:49;;;;;;;;;2.67;2.00;;;;;11.62;71.21;101455.41;2009935;28;2737755;-79
2023/01/14 03:54:15;;;;;;;;;3.50;0.50;;;;;11.62;71.09;101458.91;1982480;28;2732559;-79
2023/01/14 03:55:39;;;;;;;;;1.83;1.83;;;;;11.62;71.18;101451.00;2005431;28;2736709;-79
2023/01/14 03:56:52;;;;;;;;;5.00;2.00;;;;;11.63;71.14;101441.34;1957147;28;2754448;-79
2023/01/14 03:58:23;;;;;;;;;4.33;2.00;;;;;11.62;70.70;101444.88;2004898;28;2746160;-79
2023/01/14 04:00:07;;;;;;;;;2.00;0.67;;;;;11.59;71.05;101433.53;2006017;28;2734641;-79
2023/01/14 04:01:26;;;;;;;;;5.67;1.67;;;;;11.59;70.99;101436.16;1983433;28;3445037;-79
2023/01/14 04:02:41;;;;;;;;;3.33;0.83;;;;;11.58;71.08;101426.50;2012922;28;2744037;-79
2023/01/14 04:03:53;;;;;;;;;3.33;2.33;;;;;11.58;71.07;101423.88;1986801;28;2754432;-79
2023/01/14 04:05:07;;;;;;;;;0.67;0.67;;;;;11.56;70.82;101427.47;2010810;28;2731508;-79
2023/01/14 04:06:21;;;;;;;;;2.00;1.83;;;;;11.55;70.90;101434.50;2005613;28;2752353;-79
2023/01/14 04:07:35;;;;;;;;;5.17;1.83;;;;;11.55;71.05;101425.75;1989707;28;2754440;-79
2023/01/14 04:08:48;;;;;;;;;4.33;1.00;;;;;11.56;71.12;101423.06;1995889;28;2737765;-79
2023/01/14 04:10:02;;;;;;;;;2.50;1.17;;;;;11.55;70.91;101416.09;1996000;28;2740903;-80
2023/01/14 04:11:15;;;;;;;;;5.50;1.17;;;;;11.55;71.11;101409.94;1996566;28;2754487;-80
2023/01/14 04:12:28;;;;;;;;;3.00;2.00;;;;;11.56;71.06;101411.66;2018140;28;2737777;-79
2023/01/14 04:15:22;;;;;;;;;2.17;0.83;;;;;11.57;70.82;101405.50;1990235;28;2731509;-79
2023/01/14 04:16:33;;;;;;;;;2.67;1.67;;;;;11.57;70.80;101400.22;1963945;28;2732581;-78
2023/01/14 04:17:44;;;;;;;;;4.00;1.00;;;;;11.56;70.85;101399.38;2012903;28;2737801;-78
2023/01/14 04:18:57;;;;;;;;;3.33;2.67;;;;;11.56;70.85;101395.84;2010614;28;2754480;-78
2023/01/14 04:20:10;;;;;;;;;4.00;1.83;;;;;11.56;71.05;101393.22;1989609;28;2749240;-78
2023/01/14 04:21:23;;;;;;;;;3.50;1.17;;;;;11.56;71.17;101382.69;1987211;28;2741930;-79
2023/01/14 04:22:37;;;;;;;;;6.17;1.67;;;;;11.57;70.87;101376.53;2012231;28;2746114;-77
2023/01/14 04:23:50;;;;;;;;;7.17;2.50;;;;;11.56;71.41;101367.78;1988924;28;2748194;-76
2023/01/14 04:25:03;;;;;;;;;4.00;2.17;;;;;11.59;71.04;101369.47;1985880;28;2730481;-75
2023/01/14 04:26:14;;;;;;;;;1.33;1.33;;;;;11.59;70.82;101361.56;1977025;28;1819135;-76
2023/01/14 04:27:26;;;;;;;;;3.25;1.00;;;;;11.59;70.90;101362.44;1989510;28;2737759;-76
2023/01/14 04:28:39;;;;;;;;;3.33;1.83;;;;;11.60;70.85;101358.03;2019003;28;2752954;-76
2023/01/14 04:29:52;;;;;;;;;6.50;3.00;;;;;11.61;70.61;101365.00;1987937;28;2754467;-76
2023/01/14 04:31:03;;;;;;;;;4.67;1.67;;;;;11.62;70.97;101363.25;1963716;28;2754484;-76
2023/01/14 04:32:14;;;;;;;;;7.00;3.33;;;;;11.62;71.07;101350.09;2011485;28;2749208;-75
2023/01/14 04:33:27;;;;;;;;;5.33;2.17;;;;;11.62;71.17;101345.69;1988540;28;2754420;-76
2023/01/14 04:34:40;;;;;;;;;5.50;2.50;;;;;11.61;70.82;101357.09;1988932;28;2754502;-76
2023/01/14 04:35:53;;;;;;;;;3.33;2.00;;;;;11.62;71.02;101355.34;1981451;28;2737767;-76
2023/01/14 04:37:07;;;;;;;;;6.00;3.50;;;;;11.61;71.00;101354.47;1992862;28;1821707;-76
2023/01/14 04:38:22;;;;;;;;;7.33;3.33;;;;;11.61;70.90;101349.22;2004779;28;2738824;-75
2023/01/14 04:39:35;;;;;;;;;3.50;1.67;;;;;11.59;70.92;101353.66;1980617;28;2750306;-75
2023/01/14 04:40:48;;;;;;;;;7.00;2.33;;;;;11.61;70.91;101364.13;1978668;28;2754456;-76
2023/01/14 04:43:33;;;;;;;;;3.33;2.33;;;;;11.61;71.08;101354.47;1989295;28;2740899;-76
2023/01/14 04:44:46;;;;;;;;;8.67;3.00;;;;;11.61;70.99;101365.00;1976558;28;1827380;-75
2023/01/14 04:45:59;;;;;;;;;2.83;1.17;;;;;11.63;70.78;101357.09;1995787;28;2750581;-76
2023/01/14 04:47:14;;;;;;;;;4.33;2.67;;;;;11.62;70.78;101353.59;1985070;28;2745088;-76
2023/01/14 04:48:25;;;;;;;;;3.00;2.33;;;;;11.63;70.78;101336.88;1963285;28;2752359;-76
2023/01/14 04:49:38;;;;;;;;;5.83;2.50;;;;;11.64;70.85;101354.41;2010978;28;2741976;-76
2023/01/14 04:50:51;;;;;;;;;4.67;1.83;;;;;11.64;70.98;101338.59;1981178;28;2754477;-76
2023/01/14 04:52:05;;;;;;;;;5.83;1.83;;;;;11.64;70.67;101346.50;1981219;28;2754432;-76
2023/01/14 04:53:23;;;;;;;;;3.83;1.00;;;;;11.65;70.82;101344.75;1981253;28;2748178;-76
2023/01/14 04:54:33;;;;;;;;;1.33;1.33;;;;;11.65;70.75;101345.63;1956094;28;2754558;-76
2023/01/14 04:55:45;;;;;;;;;3.33;3.33;;;;;11.66;70.97;101335.91;2010737;28;2749208;-76
2023/01/14 04:56:56;;;;;;;;;6.00;3.00;;;;;11.64;70.87;101338.59;1957561;28;3472115;-76
2023/01/14 04:58:09;;;;;;;;;8.33;3.00;;;;;11.65;70.95;101335.06;2002225;28;2754420;-76
2023/01/14 04:59:22;;;;;;;;;6.00;1.83;;;;;11.68;70.97;101331.50;1984154;28;2750270;-76
2023/01/14 05:00:36;;;;;;;;;4.00;1.33;;;;;11.67;70.83;101320.09;1982770;28;2742004;-76
2023/01/14 05:01:50;;;;;;;;;3.00;1.17;;;;;11.66;70.79;101321.00;2006713;28;2746077;-78
2023/01/14 05:03:09;;;;;;;;;5.00;2.33;;;;;11.68;70.63;101311.28;1985926;28;2754444;-78
2023/01/14 05:04:22;;;;;;;;;2.83;1.00;;;;;11.69;70.48;101310.38;2006238;28;2735706;-78
2023/01/14 05:05:36;;;;;;;;;2.17;0.67;;;;;11.68;70.50;101313.91;2005356;28;2732558;-78
2023/01/14 05:06:49;;;;;;;;;1.00;0.50;;;;;11.71;70.47;101307.69;2012480;28;2737790;-78
2023/01/14 05:08:04;;;;;;;;;4.33;1.67;;;;;11.70;70.66;101301.56;1990317;28;2734649;-78
2023/01/14 05:09:17;;;;;;;;;3.33;0.83;;;;;11.72;70.70;101300.66;1989874;28;2731516;-78
2023/01/14 05:10:28;;;;;;;;;4.67;3.00;;;;;11.70;70.42;101296.28;1969523;28;2754567;-78
2023/01/14 05:11:39;;;;;;;;;6.00;1.67;;;;;11.71;70.55;101297.16;2010283;28;2755068;-76
2023/01/14 05:12:55;;;;;;;;;5.00;1.83;;;;;11.69;70.29;101299.84;1987407;28;2732602;-76
2023/01/14 05:14:09;;;;;;;;;2.33;2.17;;;;;11.69;70.17;101304.25;1982454;28;2737793;-76
2023/01/14 05:15:30;;;;;;;;;2.67;1.00;;;;;11.68;70.28;101305.16;1981280;28;2740420;-76
2023/01/14 05:16:44;;;;;;;;;3.33;1.67;;;;;11.66;70.51;101305.19;2006189;28;2744110;-76
2023/01/14 05:17:57;;;;;;;;;2.83;1.67;;;;;11.66;70.45;101297.28;1989121;28;2750277;-76
2023/01/14 05:19:10;;;;;;;;;1.17;0.67;;;;;11.67;70.43;101306.94;1981991;28;2731076;-76
2023/01/14 05:20:24;;;;;;;;;1.50;0.50;;;;;11.68;70.26;101313.06;2004711;28;2725310;-76
2023/01/14 05:21:37;;;;;;;;;4.33;2.33;;;;;11.70;70.25;101308.63;2005496;28;2722165;-76
2023/01/14 05:22:51;;;;;;;;;1.67;1.67;;;;;11.70;70.21;101309.44;2011648;28;2728403;-76
2023/01/14 05:24:01;;;;;;;;;5.67;1.33;;;;;11.70;70.09;101303.34;1963853;28;2750435;-76
2023/01/14 05:25:13;;;;;;;;;6.67;1.33;;;;;11.72;70.03;101316.47;2001727;28;2764845;-76
2023/01/14 05:26:26;;;;;;;;;2.33;1.17;;;;;11.69;69.81;101310.38;2018345;28;2750746;-76
2023/01/14 05:27:39;;;;;;;;;2.67;1.17;;;;;11.69;70.05;101304.25;1988808;28;2737762;-76
2023/01/14 05:28:53;;;;;;;;;3.50;1.17;;;;;11.69;70.07;101298.97;1990183;28;2730518;-76
2023/01/14 05:30:07;;;;;;;;;5.83;1.50;;;;;11.69;69.90;101299.84;1989104;28;2734664;-77
2023/01/14 05:31:20;;;;;;;;;1.00;1.00;;;;;11.69;70.21;101298.97;2013523;28;2728392;-76
2023/01/14 05:32:33;;;;;;;;;4.00;2.17;;;;;11.68;70.13;101298.09;2010153;28;2748220;-77
2023/01/14 05:33:46;;;;;;;;;3.50;2.00;;;;;11.68;70.15;101295.47;1988761;28;2752368;-76
2023/01/14 05:35:00;;;;;;;;;2.67;1.33;;;;;11.68;70.22;101284.94;2011973;28;2744390;-76
2023/01/14 05:36:13;;;;;;;;;7.00;1.33;;;;;11.70;70.12;101285.75;1990246;28;2754467;-76
2023/01/14 05:37:26;;;;;;;;;4.00;1.67;;;;;11.71;69.91;101281.34;2012360;28;2748182;-76
2023/01/14 05:38:39;;;;;;;;;2.17;1.50;;;;;11.72;70.10;101282.22;1990179;28;2738807;-76
2023/01/14 05:39:53;;;;;;;;;1.83;1.00;;;;;11.73;69.87;101273.44;1983499;28;2735710;-76
2023/01/14 05:41:12;;;;;;;;;5.17;1.17;;;;;11.74;69.76;101272.50;2012594;28;2737766;-76
2023/01/14 05:45:38;;;;;;;;;2.67;1.50;;;;;11.76;69.84;101246.97;1987679;28;2736713;-76
2023/01/14 05:46:52;;;;;;;;;1.00;0.33;;;;;11.78;69.50;101251.28;1986088;28;2733692;-76
2023/01/14 05:48:05;;;;;;;;;1.50;0.67;;;;;11.79;69.71;101253.03;2005515;28;2737758;-76
2023/01/14 05:49:18;;;;;;;;;0.67;0.67;;;;;11.79;69.78;101242.50;1983743;28;2726296;-76
2023/01/14 05:50:32;;;;;;;;;3.17;0.50;;;;;11.79;69.80;101253.03;2006138;28;2746130;-76
2023/01/14 05:51:46;;;;;;;;;3.00;1.33;;;;;11.79;69.68;101246.91;1987906;28;2736731;-76
2023/01/14 05:52:59;;;;;;;;;1.00;1.00;;;;;11.78;69.46;101230.22;1989332;28;2727365;-76
2023/01/14 05:54:12;;;;;;;;;1.67;1.17;;;;;11.78;69.35;101230.22;2005730;28;2738298;-76
2023/01/14 05:55:25;;;;;;;;;0.33;0.33;;;;;11.78;69.14;101237.25;1989105;28;2726344;-77
2023/01/14 05:56:38;;;;;;;;;2.83;1.00;;;;;11.77;69.57;101227.66;2006083;28;2730486;-76
2023/01/14 05:57:52;;;;;;;;;1.17;1.00;;;;;11.75;69.32;101229.47;2019797;28;2737794;-76
2023/01/14 05:59:05;;;;;;;;;3.33;1.00;;;;;11.77;69.26;101227.66;2019466;28;2731556;-76
2023/01/14 06:06:20;;;;;;;;;2.83;2.00;;;;;11.73;69.12;101212.88;2011270;28;2739860;-77
2023/01/14 06:06:50;;;;;;;;;2.00;0.50;;;;;11.70;69.04;101214.66;2010053;28;2729433;-76